createdAt,value
2019-02-26T00:00:04.622Z,7.83
2019-02-26T00:01:26.166Z,7.77
2019-02-26T00:02:38.493Z,7.75
2019-02-26T00:03:51.912Z,7.78
2019-02-26T00:05:05.974Z,7.78
2019-02-26T00:06:20.552Z,7.78
2019-02-26T00:07:36.987Z,7.8
2019-02-26T00:08:53.565Z,7.81
2019-02-26T00:10:09.941Z,7.7
2019-02-26T00:11:19.868Z,7.78
2019-02-26T00:12:38.109Z,7.69
2019-02-26T00:13:48.650Z,7.81
2019-02-26T00:15:07.146Z,7.66
2019-02-26T00:16:22.438Z,7.66
2019-02-26T00:17:36.051Z,7.66
2019-02-26T00:18:53.183Z,7.7
2019-02-26T00:20:13.308Z,7.61
2019-02-26T00:21:31.146Z,7.61
2019-02-26T00:22:43.640Z,7.51
2019-02-26T00:23:55.599Z,7.5
2019-02-26T00:25:12.766Z,7.53
2019-02-26T00:26:27.270Z,7.5
2019-02-26T00:27:39.712Z,7.47
2019-02-26T00:28:50.581Z,7.53
2019-02-26T00:30:02.354Z,7.44
2019-02-26T00:31:14.802Z,7.44
2019-02-26T00:32:29.869Z,7.4
2019-02-26T00:33:45.724Z,7.33
2019-02-26T00:34:59.663Z,7.39
2019-02-26T00:36:17.133Z,7.37
2019-02-26T00:37:30.838Z,7.37
2019-02-26T00:38:46.257Z,7.33
2019-02-26T00:39:58.874Z,7.31
2019-02-26T00:41:10.829Z,7.32
2019-02-26T00:42:29.325Z,7.31
2019-02-26T00:43:43.482Z,7.33
2019-02-26T00:45:03.367Z,7.18
2019-02-26T00:46:15.549Z,7.26
2019-02-26T00:47:36.274Z,7.23
2019-02-26T00:48:51.455Z,7.26
2019-02-26T00:50:05.112Z,7.14
2019-02-26T00:51:26.890Z,7.13
2019-02-26T00:52:41.459Z,7.13
2019-02-26T00:53:58.171Z,7.11
2019-02-26T00:55:13.730Z,7.04
2019-02-26T00:56:29.362Z,7.04
2019-02-26T00:57:47.761Z,7.04
2019-02-26T00:58:57.705Z,7.05
2019-02-26T01:00:12.158Z,7.05
2019-02-26T01:01:26.247Z,7.03
2019-02-26T01:02:36.189Z,7.08
2019-02-26T01:03:51.957Z,6.93
2019-02-26T01:05:01.678Z,6.96
2019-02-26T01:06:15.970Z,6.9
2019-02-26T01:07:32.294Z,6.93
2019-02-26T01:08:47.059Z,6.92
2019-02-26T01:10:01.596Z,6.83
2019-02-26T01:11:13.189Z,6.8
2019-02-26T01:12:26.392Z,6.72
2019-02-26T01:13:38.234Z,6.67
2019-02-26T01:14:52.438Z,6.71
2019-02-26T01:16:02.394Z,6.64
2019-02-26T01:17:18.637Z,6.59
2019-02-26T01:18:31.459Z,6.59
2019-02-26T01:19:45.261Z,6.57
2019-02-26T01:21:00.313Z,6.54
2019-02-26T01:22:11.969Z,6.62
2019-02-26T01:23:28.940Z,6.59
2019-02-26T01:24:38.993Z,6.53
2019-02-26T01:25:48.441Z,6.47
2019-02-26T01:27:01.611Z,6.38
2019-02-26T01:28:14.044Z,6.46
2019-02-26T01:29:34.799Z,6.35
2019-02-26T01:30:44.484Z,6.35
2019-02-26T01:32:02.179Z,6.32
2019-02-26T01:33:16.280Z,6.32
2019-02-26T01:34:28.134Z,6.36
2019-02-26T01:35:40.325Z,6.36
2019-02-26T01:36:52.511Z,6.35
2019-02-26T01:38:05.029Z,6.34
2019-02-26T01:39:21.423Z,6.29
2019-02-26T01:40:32.466Z,6.26
2019-02-26T01:41:55.673Z,6.28
2019-02-26T01:43:08.608Z,6.28
2019-02-26T01:44:18.304Z,6.26
2019-02-26T01:45:34.155Z,6.31
2019-02-26T01:46:45.911Z,6.29
2019-02-26T01:47:57.499Z,6.22
2019-02-26T01:49:09.303Z,6.25
2019-02-26T01:50:21.016Z,6.26
2019-02-26T01:51:33.134Z,6.26
2019-02-26T01:52:43.073Z,6.26
2019-02-26T01:53:58.039Z,6.17
2019-02-26T01:55:07.477Z,6.13
2019-02-26T01:56:17.705Z,6.12
2019-02-26T01:57:32.049Z,6.15
2019-02-26T01:58:41.498Z,6.1
2019-02-26T01:59:54.851Z,6.13
2019-02-26T02:01:04.809Z,6.17
2019-02-26T02:02:23.188Z,6.07
2019-02-26T02:03:37.211Z,6.06
2019-02-26T02:04:49.909Z,6.15
2019-02-26T02:06:00.719Z,6.09
2019-02-26T02:07:13.193Z,6.12
2019-02-26T02:08:29.533Z,6.09
2019-02-26T02:09:39.250Z,6.02
2019-02-26T02:10:56.522Z,6.05
2019-02-26T02:12:15.379Z,6.07
2019-02-26T02:13:30.534Z,6.06
2019-02-26T02:14:46.410Z,6.05
2019-02-26T02:15:57.559Z,6.01
2019-02-26T02:17:16.053Z,5.99
2019-02-26T02:18:31.785Z,6.06
2019-02-26T02:19:41.479Z,6.05
2019-02-26T02:20:51.432Z,5.98
2019-02-26T02:22:03.078Z,5.99
2019-02-26T02:23:13.011Z,6.01
2019-02-26T02:24:29.200Z,5.97
2019-02-26T02:25:45.469Z,5.94
2019-02-26T02:27:00.402Z,5.84
2019-02-26T02:28:10.350Z,5.9
2019-02-26T02:29:30.842Z,5.91
2019-02-26T02:30:43.761Z,5.94
2019-02-26T02:31:59.227Z,5.87
2019-02-26T02:33:17.191Z,5.9
2019-02-26T02:34:43.043Z,5.8
2019-02-26T02:35:53.083Z,5.74
2019-02-26T02:37:02.778Z,5.77
2019-02-26T02:38:12.483Z,5.76
2019-02-26T02:39:31.679Z,5.79
2019-02-26T02:40:48.473Z,5.7
2019-02-26T02:42:02.063Z,5.79
2019-02-26T02:43:21.308Z,5.67
2019-02-26T02:44:33.325Z,5.74
2019-02-26T02:45:47.548Z,5.73
2019-02-26T02:47:09.181Z,5.8
2019-02-26T02:48:20.825Z,5.8
2019-02-26T02:49:33.605Z,5.74
2019-02-26T02:50:49.634Z,5.69
2019-02-26T02:52:04.141Z,5.69
2019-02-26T02:53:24.500Z,5.65
2019-02-26T02:54:43.945Z,5.69
2019-02-26T02:55:57.159Z,5.67
2019-02-26T02:57:12.513Z,5.69
2019-02-26T02:58:28.241Z,5.52
2019-02-26T02:59:42.324Z,5.55
2019-02-26T03:01:00.277Z,5.56
2019-02-26T03:02:14.978Z,5.59
2019-02-26T03:03:28.572Z,5.59
2019-02-26T03:04:39.597Z,5.58
2019-02-26T03:05:50.469Z,5.49
2019-02-26T03:07:05.006Z,5.54
2019-02-26T03:08:22.295Z,5.41
2019-02-26T03:09:37.705Z,5.43
2019-02-26T03:10:50.816Z,5.52
2019-02-26T03:12:00.754Z,5.58
2019-02-26T03:13:10.697Z,5.56
2019-02-26T03:14:26.325Z,5.59
2019-02-26T03:15:43.668Z,5.51
2019-02-26T03:16:58.658Z,5.54
2019-02-26T03:18:16.925Z,5.59
2019-02-26T03:19:26.984Z,5.7
2019-02-26T03:20:44.892Z,5.67
2019-02-26T03:21:59.260Z,5.67
2019-02-26T03:23:19.907Z,5.7
2019-02-26T03:24:35.921Z,5.65
2019-02-26T03:25:52.225Z,5.77
2019-02-26T03:27:02.631Z,5.65
2019-02-26T03:28:12.307Z,5.69
2019-02-26T03:29:22.245Z,5.65
2019-02-26T03:30:45.382Z,5.67
2019-02-26T03:31:59.856Z,5.69
2019-02-26T03:33:09.965Z,5.65
2019-02-26T03:34:27.943Z,5.69
2019-02-26T03:35:37.643Z,5.73
2019-02-26T03:36:50.335Z,5.7
2019-02-26T03:38:05.963Z,5.73
2019-02-26T03:39:15.911Z,5.62
2019-02-26T03:40:32.931Z,5.61
2019-02-26T03:41:48.402Z,5.58
2019-02-26T03:43:04.485Z,5.51
2019-02-26T03:44:21.155Z,5.56
2019-02-26T03:45:35.500Z,5.49
2019-02-26T03:46:45.456Z,5.54
2019-02-26T03:47:58.676Z,5.61
2019-02-26T03:49:08.646Z,5.52
2019-02-26T03:50:18.078Z,5.55
2019-02-26T03:51:31.685Z,5.58
2019-02-26T03:52:44.207Z,5.54
2019-02-26T03:53:54.173Z,5.54
2019-02-26T03:55:08.797Z,5.54
2019-02-26T03:56:25.363Z,5.49
2019-02-26T03:57:35.329Z,5.47
2019-02-26T03:59:03.139Z,5.49
2019-02-26T04:00:22.444Z,5.55
2019-02-26T04:01:32.389Z,5.56
2019-02-26T04:02:51.456Z,5.49
2019-02-26T04:04:07.667Z,5.58
2019-02-26T04:05:17.717Z,5.49
2019-02-26T04:06:27.414Z,5.41
2019-02-26T04:07:43.566Z,5.49
2019-02-26T04:09:00.838Z,5.47
2019-02-26T04:10:10.785Z,5.43
2019-02-26T04:11:27.717Z,5.46
2019-02-26T04:12:44.983Z,5.38
2019-02-26T04:14:01.595Z,5.4
2019-02-26T04:15:11.336Z,5.37
2019-02-26T04:16:21.046Z,5.36
2019-02-26T04:17:39.993Z,5.38
2019-02-26T04:18:56.106Z,5.4
2019-02-26T04:20:10.113Z,5.37
2019-02-26T04:21:23.961Z,5.41
2019-02-26T04:22:33.691Z,5.38
2019-02-26T04:23:51.597Z,5.38
2019-02-26T04:25:11.763Z,5.38
2019-02-26T04:26:29.121Z,5.43
2019-02-26T04:27:46.597Z,5.43
2019-02-26T04:28:57.284Z,5.46
2019-02-26T04:30:10.983Z,5.46
2019-02-26T04:31:26.043Z,5.4
2019-02-26T04:32:40.841Z,5.38
2019-02-26T04:33:59.487Z,5.38
2019-02-26T04:35:13.957Z,5.37
2019-02-26T04:36:26.762Z,5.34
2019-02-26T04:37:40.790Z,5.34
2019-02-26T04:38:55.716Z,5.34
2019-02-26T04:40:14.109Z,5.29
2019-02-26T04:41:24.184Z,5.34
2019-02-26T04:42:37.642Z,5.36
2019-02-26T04:43:52.435Z,5.34
2019-02-26T04:45:13.643Z,5.31
2019-02-26T04:46:25.426Z,5.37
2019-02-26T04:47:45.914Z,5.36
2019-02-26T04:49:02.812Z,5.23
2019-02-26T04:50:13.647Z,5.37
2019-02-26T04:51:27.941Z,5.26
2019-02-26T04:52:46.054Z,5.28
2019-02-26T04:54:02.098Z,5.34
2019-02-26T04:55:11.928Z,5.28
2019-02-26T04:56:21.884Z,5.28
2019-02-26T04:57:39.221Z,5.25
2019-02-26T04:58:55.831Z,5.19
2019-02-26T05:00:13.100Z,5.16
2019-02-26T05:01:23.991Z,5.26
2019-02-26T05:02:33.675Z,5.28
2019-02-26T05:03:43.146Z,5.23
2019-02-26T05:04:53.118Z,5.28
2019-02-26T05:06:10.796Z,5.26
2019-02-26T05:07:23.970Z,5.18
2019-02-26T05:08:40.656Z,5.18
2019-02-26T05:10:01.758Z,5.26
2019-02-26T05:11:30.687Z,5.31
2019-02-26T05:12:45.894Z,5.29
2019-02-26T05:13:59.322Z,5.31
2019-02-26T05:15:17.181Z,5.34
2019-02-26T05:16:40.285Z,5.31
2019-02-26T05:17:50.425Z,5.33
2019-02-26T05:19:03.272Z,5.37
2019-02-26T05:20:21.414Z,5.36
2019-02-26T05:21:35.408Z,5.36
2019-02-26T05:22:45.896Z,5.38
2019-02-26T05:24:03.061Z,5.47
2019-02-26T05:25:21.981Z,5.47
2019-02-26T05:26:32.814Z,5.44
2019-02-26T05:27:50.875Z,5.46
2019-02-26T05:29:00.718Z,5.47
2019-02-26T05:30:19.311Z,5.44
2019-02-26T05:31:35.101Z,5.44
2019-02-26T05:32:51.057Z,5.41
2019-02-26T05:34:07.567Z,5.47
2019-02-26T05:35:27.792Z,5.47
2019-02-26T05:36:46.069Z,5.47
2019-02-26T05:38:03.075Z,5.46
2019-02-26T05:39:20.450Z,5.47
2019-02-26T05:40:37.396Z,5.51
2019-02-26T05:42:01.196Z,5.41
2019-02-26T05:43:13.939Z,5.44
2019-02-26T05:44:25.838Z,5.44
2019-02-26T05:45:39.676Z,5.41
2019-02-26T05:46:56.584Z,5.34
2019-02-26T05:48:08.872Z,5.4
2019-02-26T05:49:25.682Z,5.37
2019-02-26T05:50:44.650Z,5.37
2019-02-26T05:51:58.517Z,5.38
2019-02-26T05:53:15.942Z,5.37
2019-02-26T05:54:28.812Z,5.37
2019-02-26T05:55:38.779Z,5.37
2019-02-26T05:56:55.519Z,5.34
2019-02-26T05:58:07.872Z,5.36
2019-02-26T05:59:26.467Z,5.33
2019-02-26T06:00:38.043Z,5.34
2019-02-26T06:01:55.959Z,5.33
2019-02-26T06:03:15.499Z,5.31
2019-02-26T06:04:27.892Z,5.29
2019-02-26T06:05:51.334Z,5.37
2019-02-26T06:07:07.572Z,5.26
2019-02-26T06:08:17.510Z,5.26
2019-02-26T06:09:36.273Z,5.31
2019-02-26T06:10:45.964Z,5.25
2019-02-26T06:11:55.918Z,5.23
2019-02-26T06:13:12.338Z,5.29
2019-02-26T06:14:25.287Z,5.25
2019-02-26T06:15:42.286Z,5.26
2019-02-26T06:16:58.119Z,5.26
2019-02-26T06:18:08.067Z,5.25
2019-02-26T06:19:20.785Z,5.29
2019-02-26T06:20:36.722Z,5.23
2019-02-26T06:21:52.226Z,5.23
2019-02-26T06:23:04.289Z,5.26
2019-02-26T06:24:13.996Z,5.15
2019-02-26T06:25:30.473Z,5.22
2019-02-26T06:26:45.604Z,5.2
2019-02-26T06:27:55.098Z,5.23
2019-02-26T06:29:12.857Z,5.23
2019-02-26T06:30:27.505Z,5.23
2019-02-26T06:31:42.148Z,5.13
2019-02-26T06:32:59.533Z,5.2
2019-02-26T06:34:23.746Z,5.26
2019-02-26T06:35:36.538Z,5.2
2019-02-26T06:36:53.981Z,5.19
2019-02-26T06:38:09.182Z,5.18
2019-02-26T06:39:26.726Z,5.08
2019-02-26T06:40:49.003Z,5.16
2019-02-26T06:41:59.237Z,5.12
2019-02-26T06:43:14.566Z,5.05
2019-02-26T06:44:24.254Z,5.07
2019-02-26T06:45:35.488Z,5.12
2019-02-26T06:46:50.699Z,5.07
2019-02-26T06:48:03.001Z,5.2
2019-02-26T06:49:12.480Z,5.16
2019-02-26T06:50:25.361Z,5.19
2019-02-26T06:51:37.159Z,5.18
2019-02-26T06:52:53.267Z,5.22
2019-02-26T06:54:05.299Z,5.15
2019-02-26T06:55:14.986Z,5.13
2019-02-26T06:56:24.942Z,5.23
2019-02-26T06:57:35.411Z,5.18
2019-02-26T06:58:52.039Z,5.12
2019-02-26T07:00:06.688Z,5.13
2019-02-26T07:01:20.756Z,5.12
2019-02-26T07:02:33.821Z,5.12
2019-02-26T07:03:45.459Z,5.1
2019-02-26T07:04:55.393Z,5.05
2019-02-26T07:06:08.664Z,5.1
2019-02-26T07:07:19.254Z,5.15
2019-02-26T07:08:33.506Z,5.16
2019-02-26T07:09:46.210Z,5.1
2019-02-26T07:10:56.170Z,5.12
2019-02-26T07:12:06.117Z,5.07
2019-02-26T07:13:18.234Z,5.16
2019-02-26T07:14:34.559Z,5.16
2019-02-26T07:15:47.685Z,5.15
2019-02-26T07:17:01.298Z,5.19
2019-02-26T07:18:19.695Z,5.19
2019-02-26T07:19:35.741Z,5.19
2019-02-26T07:20:55.725Z,5.22
2019-02-26T07:22:13.467Z,5.23
2019-02-26T07:23:27.298Z,5.26
2019-02-26T07:24:46.775Z,5.23
2019-02-26T07:26:00.716Z,5.26
2019-02-26T07:27:14.463Z,5.31
2019-02-26T07:28:29.180Z,5.33
2019-02-26T07:29:47.889Z,5.33
2019-02-26T07:31:02.676Z,5.33
2019-02-26T07:32:22.901Z,5.37
2019-02-26T07:33:39.604Z,5.34
2019-02-26T07:34:54.509Z,5.36
2019-02-26T07:36:08.129Z,5.31
2019-02-26T07:37:20.479Z,5.41
2019-02-26T07:38:40.776Z,5.43
2019-02-26T07:39:56.637Z,5.44
2019-02-26T07:41:10.979Z,5.44
2019-02-26T07:42:23.532Z,5.46
2019-02-26T07:43:46.770Z,5.41
2019-02-26T07:45:00.089Z,5.51
2019-02-26T07:46:23.905Z,5.59
2019-02-26T07:47:38.492Z,5.64
2019-02-26T07:48:57.080Z,5.64
2019-02-26T07:50:17.436Z,5.67
2019-02-26T07:51:27.242Z,5.73
2019-02-26T07:52:43.125Z,5.77
2019-02-26T07:54:03.081Z,5.9
2019-02-26T07:55:17.765Z,5.91
2019-02-26T07:56:34.476Z,5.98
2019-02-26T07:57:50.661Z,6.12
2019-02-26T07:59:09.890Z,6.07
2019-02-26T08:00:22.114Z,6.22
2019-02-26T08:01:31.805Z,6.28
2019-02-26T08:02:45.102Z,6.41
2019-02-26T08:03:58.270Z,6.41
2019-02-26T08:05:08.229Z,6.54
2019-02-26T08:06:18.868Z,6.54
2019-02-26T08:07:33.255Z,6.56
2019-02-26T08:08:48.962Z,6.74
2019-02-26T08:09:58.727Z,6.71
2019-02-26T08:11:08.427Z,6.83
2019-02-26T08:12:20.210Z,6.89
2019-02-26T08:13:36.615Z,6.83
2019-02-26T08:14:52.049Z,6.95
2019-02-26T08:16:07.386Z,7.05
2019-02-26T08:17:17.362Z,7.03
2019-02-26T08:18:27.315Z,7.19
2019-02-26T08:19:46.665Z,7.19
2019-02-26T08:21:03.024Z,7.36
2019-02-26T08:22:14.817Z,7.39
2019-02-26T08:23:28.736Z,7.53
2019-02-26T08:24:38.681Z,7.51
2019-02-26T08:25:54.719Z,7.56
2019-02-26T08:27:13.610Z,7.64
2019-02-26T08:28:27.335Z,7.69
2019-02-26T08:29:40.516Z,7.78
2019-02-26T08:30:57.196Z,7.93
2019-02-26T08:32:06.877Z,8.03
2019-02-26T08:33:21.120Z,8.08
2019-02-26T08:34:31.073Z,8.13
2019-02-26T08:35:44.508Z,8.14
2019-02-26T08:36:54.219Z,8.18
2019-02-26T08:38:08.639Z,8.35
2019-02-26T08:39:20.046Z,8.35
2019-02-26T08:40:30.045Z,8.34
2019-02-26T08:41:40.015Z,8.5
2019-02-26T08:42:49.713Z,8.6
2019-02-26T08:44:01.434Z,8.87
2019-02-26T08:45:12.391Z,9.13
2019-02-26T08:46:30.793Z,9.42
2019-02-26T08:47:42.545Z,9.45
2019-02-26T08:48:53.423Z,9.47
2019-02-26T08:50:17.388Z,9.42
2019-02-26T08:51:27.353Z,9.19
2019-02-26T08:52:37.325Z,9.27
2019-02-26T08:53:54.574Z,9.42
2019-02-26T08:55:07.120Z,9.49
2019-02-26T08:56:28.155Z,9.76
2019-02-26T08:57:43.918Z,10.18
2019-02-26T08:58:58.368Z,10.36
2019-02-26T09:00:11.102Z,10.58
2019-02-26T09:01:21.076Z,10.77
2019-02-26T09:02:30.805Z,10.65
2019-02-26T09:03:45.731Z,10.51
2019-02-26T09:05:04.434Z,10.38
2019-02-26T09:06:18.830Z,10.18
2019-02-26T09:07:30.827Z,9.95
2019-02-26T09:08:45.386Z,9.84
2019-02-26T09:10:00.047Z,9.73
2019-02-26T09:11:16.605Z,9.84
2019-02-26T09:12:29.762Z,9.74
2019-02-26T09:13:44.251Z,9.7
2019-02-26T09:14:54.806Z,9.72
2019-02-26T09:16:08.032Z,9.58
2019-02-26T09:17:24.225Z,9.58
2019-02-26T09:18:43.454Z,9.63
2019-02-26T09:20:12.238Z,9.56
2019-02-26T09:21:25.887Z,9.62
2019-02-26T09:22:35.869Z,9.54
2019-02-26T09:24:02.539Z,9.59
2019-02-26T09:25:15.377Z,9.56
2019-02-26T09:26:28.454Z,9.63
2019-02-26T09:27:45.390Z,9.49
2019-02-26T09:28:59.615Z,9.44
2019-02-26T09:30:16.066Z,9.24
2019-02-26T09:31:27.039Z,9.29
2019-02-26T09:32:44.640Z,9.19
2019-02-26T09:33:54.554Z,9.21
2019-02-26T09:35:09.411Z,9.13
2019-02-26T09:36:29.298Z,9.09
2019-02-26T09:37:39.444Z,8.96
2019-02-26T09:38:56.284Z,8.86
2019-02-26T09:40:09.695Z,8.96
2019-02-26T09:41:23.952Z,8.86
2019-02-26T09:42:35.174Z,8.89
2019-02-26T09:43:48.461Z,8.89
2019-02-26T09:45:02.497Z,8.87
2019-02-26T09:46:20.875Z,8.92
2019-02-26T09:47:35.784Z,8.96
2019-02-26T09:48:49.255Z,9
2019-02-26T09:50:02.717Z,9.03
2019-02-26T09:51:17.112Z,9.18
2019-02-26T09:52:34.083Z,9.24
2019-02-26T09:53:43.828Z,9.34
2019-02-26T09:55:00.085Z,9.37
2019-02-26T09:56:10.046Z,9.47
2019-02-26T09:57:27.772Z,9.45
2019-02-26T09:58:40.246Z,9.47
2019-02-26T10:00:02.912Z,9.4
2019-02-26T10:01:18.082Z,9.47
2019-02-26T10:02:31.251Z,9.44
2019-02-26T10:03:43.974Z,9.49
2019-02-26T10:04:56.896Z,9.56
2019-02-26T10:06:06.646Z,9.64
2019-02-26T10:07:18.956Z,9.64
2019-02-26T10:08:32.810Z,9.7
2019-02-26T10:09:50.424Z,9.8
2019-02-26T10:11:06.693Z,9.95
2019-02-26T10:12:20.266Z,10.05
2019-02-26T10:13:32.630Z,10.09
2019-02-26T10:14:44.592Z,10.25
2019-02-26T10:16:03.435Z,10.23
2019-02-26T10:17:21.553Z,10.31
2019-02-26T10:18:35.449Z,10.38
2019-02-26T10:19:47.715Z,10.34
2019-02-26T10:20:59.573Z,10.41
2019-02-26T10:22:17.503Z,10.43
2019-02-26T10:23:32.957Z,10.45
2019-02-26T10:24:45.355Z,10.46
2019-02-26T10:26:02.787Z,10.55
2019-02-26T10:27:18.902Z,10.58
2019-02-26T10:28:30.100Z,10.68
2019-02-26T10:29:52.270Z,10.68
2019-02-26T10:31:09.759Z,10.71
2019-02-26T10:32:19.808Z,10.67
2019-02-26T10:33:37.762Z,10.82
2019-02-26T10:34:53.494Z,10.8
2019-02-26T10:36:08.400Z,10.79
2019-02-26T10:37:23.454Z,10.9
2019-02-26T10:38:40.915Z,10.95
2019-02-26T10:39:57.263Z,11.16
2019-02-26T10:41:07.649Z,11.23
2019-02-26T10:42:20.876Z,11.48
2019-02-26T10:43:30.859Z,11.6
2019-02-26T10:44:42.670Z,11.63
2019-02-26T10:45:58.297Z,11.73
2019-02-26T10:47:13.052Z,11.77
2019-02-26T10:48:28.138Z,11.74
2019-02-26T10:49:38.131Z,11.78
2019-02-26T10:50:54.441Z,11.8
2019-02-26T10:52:04.412Z,11.71
2019-02-26T10:53:25.158Z,11.81
2019-02-26T10:54:46.441Z,11.76
2019-02-26T10:55:56.516Z,11.81
2019-02-26T10:57:14.602Z,11.93
2019-02-26T10:58:24.714Z,11.93
2019-02-26T10:59:34.948Z,12.02
2019-02-26T11:00:50.445Z,12.02
2019-02-26T11:02:09.776Z,12.02
2019-02-26T11:03:25.076Z,11.96
2019-02-26T11:04:50.286Z,11.89
2019-02-26T11:06:04.717Z,11.85
2019-02-26T11:07:23.100Z,11.71
2019-02-26T11:08:39.668Z,11.7
2019-02-26T11:09:56.116Z,11.68
2019-02-26T11:11:16.488Z,11.86
2019-02-26T11:12:36.292Z,11.8
2019-02-26T11:13:54.265Z,11.89
2019-02-26T11:15:09.311Z,11.88
2019-02-26T11:16:33.000Z,11.97
2019-02-26T11:17:53.526Z,12.07
2019-02-26T11:19:12.318Z,12.11
2019-02-26T11:20:30.802Z,12.1
2019-02-26T11:21:42.096Z,12.1
2019-02-26T11:22:56.785Z,12.08
2019-02-26T11:24:13.572Z,11.96
2019-02-26T11:25:29.248Z,12.05
2019-02-26T11:26:43.860Z,11.93
2019-02-26T11:27:53.984Z,11.77
2019-02-26T11:29:07.631Z,11.6
2019-02-26T11:30:20.973Z,11.55
2019-02-26T11:31:41.667Z,11.56
2019-02-26T11:33:02.267Z,11.43
2019-02-26T11:34:18.324Z,11.35
2019-02-26T11:35:31.452Z,11.3
2019-02-26T11:36:43.482Z,11.25
2019-02-26T11:37:59.460Z,11.22
2019-02-26T11:39:16.295Z,11.19
2019-02-26T11:40:32.587Z,11.07
2019-02-26T11:41:42.586Z,11.1
2019-02-26T11:42:55.986Z,11.18
2019-02-26T11:44:25.718Z,11.25
2019-02-26T11:45:44.415Z,11.34
2019-02-26T11:46:58.816Z,11.45
2019-02-26T11:48:11.424Z,11.49
2019-02-26T11:49:24.639Z,11.45
2019-02-26T11:50:36.804Z,11.55
2019-02-26T11:51:49.800Z,11.77
2019-02-26T11:52:59.980Z,11.91
2019-02-26T11:54:17.112Z,11.89
2019-02-26T11:55:35.011Z,12
2019-02-26T11:56:52.580Z,11.99
2019-02-26T11:58:05.579Z,12
2019-02-26T11:59:23.986Z,12.29
2019-02-26T12:00:44.779Z,12.51
2019-02-26T12:02:03.869Z,12.75
2019-02-26T12:03:14.158Z,12.91
2019-02-26T12:04:27.900Z,12.87
2019-02-26T12:05:43.642Z,12.72
2019-02-26T12:06:55.436Z,12.72
2019-02-26T12:08:16.818Z,12.7
2019-02-26T12:09:40.673Z,12.86
2019-02-26T12:10:52.248Z,12.93
2019-02-26T12:12:13.938Z,13.03
2019-02-26T12:13:29.556Z,13.06
2019-02-26T12:14:46.557Z,13.13
2019-02-26T12:15:58.115Z,13.17
2019-02-26T12:17:08.206Z,13.23
2019-02-26T12:18:22.588Z,13.2
2019-02-26T12:19:37.192Z,13.21
2019-02-26T12:20:50.810Z,13.21
2019-02-26T12:22:06.352Z,13.16
2019-02-26T12:23:22.695Z,12.9
2019-02-26T12:26:34.904Z,12.36
2019-02-26T12:27:50.651Z,12.17
2019-02-26T12:29:06.297Z,11.97
2019-02-26T12:30:21.013Z,11.88
2019-02-26T12:31:39.107Z,11.85
2019-02-26T12:32:55.103Z,11.76
2019-02-26T12:34:04.956Z,11.8
2019-02-26T12:35:22.817Z,11.86
2019-02-26T12:36:38.203Z,11.85
2019-02-26T12:37:50.757Z,11.91
2019-02-26T12:39:28.840Z,11.93
2019-02-26T12:42:43.938Z,11.77
2019-02-26T12:43:53.887Z,11.73
2019-02-26T12:45:17.862Z,11.78
2019-02-26T12:46:34.287Z,11.88
2019-02-26T12:47:52.123Z,11.85
2019-02-26T12:49:06.711Z,11.95
2019-02-26T12:50:36.564Z,11.95
2019-02-26T12:51:50.454Z,11.95
2019-02-26T12:53:05.762Z,12.03
2019-02-26T12:54:22.581Z,12.11
2019-02-26T12:55:45.117Z,11.99
2019-02-26T12:57:04.092Z,11.95
2019-02-26T12:58:21.244Z,11.96
2019-02-26T12:59:35.299Z,12.02
2019-02-26T13:00:46.918Z,12.12
2019-02-26T13:01:56.926Z,12.23
2019-02-26T13:03:15.670Z,12.15
2019-02-26T13:04:30.316Z,12.26
2019-02-26T13:07:42.788Z,12.1
2019-02-26T13:11:00.225Z,12.23
2019-02-26T13:12:12.300Z,12.23
2019-02-26T13:13:36.812Z,12.3
2019-02-26T13:14:51.076Z,12.36
2019-02-26T13:16:14.788Z,12.45
2019-02-26T13:17:32.199Z,12.53
2019-02-26T13:18:41.552Z,12.63
2019-02-26T13:20:10.506Z,12.69
2019-02-26T13:21:21.862Z,12.87
2019-02-26T13:22:31.640Z,12.78
2019-02-26T13:23:41.622Z,12.93
2019-02-26T13:24:51.341Z,12.91
2019-02-26T13:26:03.801Z,12.91
2019-02-26T13:27:20.166Z,12.94
2019-02-26T13:28:34.446Z,12.78
2019-02-26T13:29:59.455Z,12.75
2019-02-26T13:31:18.901Z,12.48
2019-02-26T13:33:00.820Z,12.53
2019-02-26T13:36:18.898Z,12.66
2019-02-26T13:37:41.718Z,12.72
2019-02-26T13:38:54.073Z,12.8
2019-02-26T13:40:03.775Z,12.78
2019-02-26T13:44:13.462Z,12.87
2019-02-26T13:45:23.420Z,12.86
2019-02-26T13:46:33.376Z,12.81
2019-02-26T13:47:43.061Z,12.81
2019-02-26T13:48:53.025Z,12.91
2019-02-26T13:50:03.066Z,12.99
2019-02-26T13:51:13.069Z,12.84
2019-02-26T13:52:22.804Z,12.98
2019-02-26T13:53:32.798Z,12.9
2019-02-26T13:54:42.489Z,12.94
2019-02-26T13:55:52.233Z,13.05
2019-02-26T13:57:02.245Z,13.03
2019-02-26T13:58:16.851Z,13.06
2019-02-26T13:59:26.621Z,13.05
2019-02-26T14:00:36.354Z,13.13
2019-02-26T14:01:46.093Z,13.03
2019-02-26T14:02:56.067Z,12.99
2019-02-26T14:04:05.869Z,12.9
2019-02-26T14:05:16.290Z,12.91
2019-02-26T14:06:27.260Z,12.9
2019-02-26T14:07:37.280Z,12.95
2019-02-26T14:08:47.251Z,12.98
2019-02-26T14:09:57.226Z,12.93
2019-02-26T14:11:06.986Z,12.93
2019-02-26T14:12:16.945Z,12.98
2019-02-26T14:13:26.938Z,12.91
2019-02-26T14:14:36.673Z,12.93
2019-02-26T14:15:46.664Z,12.94
2019-02-26T14:16:56.387Z,12.94
2019-02-26T14:18:06.380Z,13.05
2019-02-26T14:19:16.360Z,13.03
2019-02-26T14:20:26.345Z,12.99
2019-02-26T14:21:36.064Z,12.95
2019-02-26T14:22:46.075Z,12.93
2019-02-26T14:23:55.283Z,12.95
2019-02-26T14:25:04.997Z,12.93
2019-02-26T14:26:14.988Z,12.94
2019-02-26T14:27:24.736Z,13.03
2019-02-26T14:28:34.709Z,13.01
2019-02-26T14:29:44.693Z,13.03
2019-02-26T14:30:54.406Z,13.12
2019-02-26T14:32:04.378Z,13.08
2019-02-26T14:33:14.372Z,13.11
2019-02-26T14:34:24.206Z,13.19
2019-02-26T14:35:34.406Z,13.2
2019-02-26T14:36:44.826Z,13.12
2019-02-26T14:37:55.417Z,13.2
2019-02-26T14:39:05.610Z,13.11
2019-02-26T14:40:15.347Z,13.16
2019-02-26T14:41:25.068Z,13.21
2019-02-26T14:42:35.072Z,13.17
2019-02-26T14:43:45.068Z,13.19
2019-02-26T14:44:55.059Z,13.11
2019-02-26T14:46:05.041Z,13.16
2019-02-26T14:47:14.822Z,13.2
2019-02-26T14:48:24.551Z,13.24
2019-02-26T14:49:34.512Z,13.21
2019-02-26T14:50:43.735Z,13.21
2019-02-26T14:51:53.469Z,13.19
2019-02-26T14:53:03.197Z,13.23
2019-02-26T14:54:13.643Z,13.26
2019-02-26T14:55:23.705Z,13.21
2019-02-26T14:56:35.197Z,13.26
2019-02-26T14:57:44.926Z,13.2
2019-02-26T14:58:55.221Z,13.24
2019-02-26T15:00:04.805Z,13.24
2019-02-26T15:01:14.541Z,13.26
2019-02-26T15:02:24.272Z,13.19
2019-02-26T15:03:33.989Z,13.24
2019-02-26T15:04:44.014Z,13.19
2019-02-26T15:05:54.214Z,13.24
2019-02-26T15:07:04.451Z,13.26
2019-02-26T15:08:15.792Z,13.23
2019-02-26T15:09:25.454Z,13.24
2019-02-26T15:10:35.174Z,13.09
2019-02-26T15:11:45.144Z,13.13
2019-02-26T15:12:55.121Z,13.06
2019-02-26T15:14:05.198Z,13.09
2019-02-26T15:15:15.217Z,13.06
2019-02-26T15:16:25.220Z,13.03
2019-02-26T15:17:35.747Z,13.02
2019-02-26T15:18:45.744Z,13.08
2019-02-26T15:19:58.089Z,13.01
2019-02-26T15:21:08.181Z,12.98
2019-02-26T15:22:19.733Z,12.99
2019-02-26T15:23:29.705Z,12.94
2019-02-26T15:24:39.445Z,12.93
2019-02-26T15:25:49.432Z,12.95
2019-02-26T15:26:59.407Z,12.84
2019-02-26T15:28:10.427Z,12.88
2019-02-26T15:29:20.153Z,12.98
2019-02-26T15:30:29.873Z,12.88
2019-02-26T15:31:39.850Z,12.93
2019-02-26T15:32:49.603Z,12.9
2019-02-26T15:33:59.795Z,12.91
2019-02-26T15:35:11.298Z,12.86
2019-02-26T15:36:22.030Z,12.84
2019-02-26T15:37:32.631Z,12.86
2019-02-26T15:38:42.854Z,12.81
2019-02-26T15:39:53.760Z,12.84
2019-02-26T15:41:03.753Z,12.8
2019-02-26T15:42:13.729Z,12.76
2019-02-26T15:43:27.227Z,12.76
2019-02-26T15:44:36.941Z,12.75
2019-02-26T15:45:54.361Z,12.75
2019-02-26T15:47:09.231Z,12.73
2019-02-26T15:48:19.292Z,12.78
2019-02-26T15:49:29.023Z,12.81
2019-02-26T15:50:45.117Z,12.73
2019-02-26T15:51:56.246Z,12.8
2019-02-26T15:53:07.323Z,12.75
2019-02-26T15:54:17.696Z,12.76
2019-02-26T15:55:30.237Z,12.72
2019-02-26T15:56:40.848Z,12.75
2019-02-26T15:57:52.268Z,12.8
2019-02-26T15:59:04.509Z,12.7
2019-02-26T16:00:16.409Z,12.81
2019-02-26T16:01:26.384Z,12.72
2019-02-26T16:02:36.838Z,12.63
2019-02-26T16:03:46.910Z,12.7
2019-02-26T16:04:56.892Z,12.63
2019-02-26T16:06:06.365Z,12.68
2019-02-26T16:07:16.339Z,12.63
2019-02-26T16:08:34.323Z,12.58
2019-02-26T16:09:48.386Z,12.66
2019-02-26T16:10:58.871Z,12.72
2019-02-26T16:12:08.819Z,12.68
2019-02-26T16:13:18.791Z,12.58
2019-02-26T16:14:28.507Z,12.65
2019-02-26T16:15:37.972Z,12.68
2019-02-26T16:16:47.947Z,12.66
2019-02-26T16:18:03.963Z,12.65
2019-02-26T16:19:13.981Z,12.62
2019-02-26T16:20:24.197Z,12.66
2019-02-26T16:21:34.171Z,12.61
2019-02-26T16:22:44.177Z,12.51
2019-02-26T16:23:54.158Z,12.55
2019-02-26T16:25:07.266Z,12.5
2019-02-26T16:26:17.469Z,12.51
2019-02-26T16:27:27.515Z,12.45
2019-02-26T16:28:45.291Z,12.5